createdAt,value
2023-02-25T00:04:44.466Z,49.90
2023-02-25T00:09:52.564Z,34.50
2023-02-25T00:15:00.122Z,43.30
2023-02-25T00:20:01.827Z,48.70
2023-02-25T00:25:03.671Z,46.10
2023-02-25T00:30:06.104Z,46.00
2023-02-25T00:35:12.432Z,39.60
2023-02-25T00:40:14.686Z,41.60
2023-02-25T00:45:17.592Z,41.40
2023-02-25T00:50:19.365Z,44.50
2023-02-25T00:55:21.008Z,36.50
2023-02-25T01:00:22.751Z,44.20
2023-02-25T01:05:25.299Z,40.70
2023-02-25T01:10:28.195Z,44.20
2023-02-25T01:15:30.829Z,42.10
2023-02-25T01:20:39.033Z,38.40
2023-02-25T01:25:41.056Z,34.50
2023-02-25T01:30:42.860Z,34.20
2023-02-25T01:35:44.617Z,40.30
2023-02-25T01:40:46.356Z,36.10
2023-02-25T01:45:48.502Z,34.10
2023-02-25T01:50:54.106Z,18.60
2023-02-25T01:55:58.439Z,31.90
2023-02-25T02:01:01.085Z,40.60
2023-02-25T02:06:22.539Z,19.00
2023-02-25T02:11:24.341Z,32.00
2023-02-25T02:16:38.410Z,26.40
2023-02-25T02:22:02.058Z,22.60
2023-02-25T02:27:09.474Z,23.50
2023-02-25T02:32:14.739Z,20.30
2023-02-25T02:37:41.639Z,13.10
2023-02-25T02:42:49.542Z,15.00
2023-02-25T02:47:58.923Z,18.30
2023-02-25T02:53:09.822Z,16.70
2023-02-25T03:03:36.657Z,14.70
2023-02-25T03:08:46.585Z,20.40
2023-02-25T03:13:48.464Z,16.90
2023-02-25T03:19:18.532Z,16.10
2023-02-25T03:29:28.448Z,20.30
2023-02-25T03:34:36.054Z,19.20
2023-02-25T03:39:42.066Z,16.30
2023-02-25T03:44:55.014Z,20.10
2023-02-25T03:50:07.025Z,18.80
2023-02-25T03:55:10.322Z,19.40
2023-02-25T04:00:19.197Z,16.70
2023-02-25T04:05:23.122Z,19.30
2023-02-25T04:10:25.660Z,16.00
2023-02-25T04:15:27.632Z,16.40
2023-02-25T04:20:30.107Z,15.10
2023-02-25T04:25:31.823Z,15.30
2023-02-25T04:30:34.448Z,15.20
2023-02-25T04:35:36.304Z,11.30
2023-02-25T04:40:38.028Z,12.30
2023-02-25T04:45:48.262Z,17.00
2023-02-25T04:50:49.935Z,25.30
2023-02-25T04:55:51.694Z,18.30
2023-02-25T05:00:54.945Z,17.40
2023-02-25T05:05:57.158Z,18.10
2023-02-25T05:10:59.040Z,20.90
2023-02-25T05:16:16.504Z,19.30
2023-02-25T05:21:21.565Z,15.40
2023-02-25T05:26:24.953Z,13.80
2023-02-25T05:31:26.989Z,20.00
2023-02-25T05:36:29.590Z,19.90
2023-02-25T05:41:31.615Z,16.80
2023-02-25T05:46:34.011Z,11.90
2023-02-25T05:51:35.941Z,18.30
2023-02-25T05:56:37.702Z,18.80
2023-02-25T06:01:39.445Z,15.30
2023-02-25T06:06:41.912Z,14.80
2023-02-25T06:11:43.744Z,16.70
2023-02-25T06:16:45.554Z,23.20
2023-02-25T06:21:47.407Z,14.90
2023-02-25T06:26:49.101Z,22.80
2023-02-25T06:31:50.902Z,17.70
2023-02-25T06:36:52.946Z,19.90
2023-02-25T06:41:54.719Z,19.00
2023-02-25T06:46:56.743Z,37.80
2023-02-25T06:51:58.430Z,12.90
2023-02-25T06:57:00.818Z,9.20
2023-02-25T07:02:02.672Z,11.70
2023-02-25T07:07:04.475Z,9.20
2023-02-25T07:12:06.296Z,11.50
2023-02-25T07:17:08.091Z,7.20
2023-02-25T07:22:15.878Z,12.30
2023-02-25T07:27:17.564Z,11.70
2023-02-25T07:32:19.436Z,16.80
2023-02-25T07:37:21.498Z,16.00
2023-02-25T07:42:23.586Z,17.40
2023-02-25T07:47:25.329Z,15.80
2023-02-25T07:52:27.154Z,25.80
2023-02-25T07:57:29.113Z,14.90
2023-02-25T08:02:30.840Z,9.70
2023-02-25T08:07:32.900Z,11.40
2023-02-25T08:12:34.733Z,12.30
2023-02-25T08:17:36.390Z,12.30
2023-02-25T08:22:38.468Z,13.50
2023-02-25T08:27:40.294Z,10.20
2023-02-25T08:32:42.123Z,8.20
2023-02-25T08:37:45.375Z,9.70
2023-02-25T08:42:47.261Z,11.00
2023-02-25T08:47:49.550Z,8.20
2023-02-25T08:52:51.856Z,6.90
2023-02-25T08:57:54.155Z,7.40
2023-02-25T09:02:55.808Z,5.40
2023-02-25T09:07:59.017Z,6.10
2023-02-25T09:13:00.754Z,8.80
2023-02-25T09:18:02.420Z,5.30
2023-02-25T09:23:04.350Z,5.70
2023-02-25T09:28:08.115Z,4.00
2023-02-25T09:33:10.010Z,5.80
2023-02-25T09:38:13.025Z,3.80
2023-02-25T09:43:23.726Z,5.10
2023-02-25T09:53:41.903Z,6.40
2023-02-25T09:58:46.784Z,10.50
2023-02-25T10:04:02.001Z,5.10
2023-02-25T10:09:14.844Z,5.60
2023-02-25T10:14:49.609Z,7.80
2023-02-25T10:20:18.390Z,5.20
2023-02-25T10:25:28.188Z,9.10
2023-02-25T10:31:02.084Z,9.60
2023-02-25T10:36:10.326Z,12.00
2023-02-25T10:41:13.479Z,7.70
2023-02-25T10:46:27.240Z,9.50
2023-02-25T10:51:29.915Z,5.70
2023-02-25T10:56:39.919Z,3.90
2023-02-25T11:01:42.791Z,4.30
2023-02-25T11:06:45.094Z,4.60
2023-02-25T11:12:08.906Z,3.10
2023-02-25T11:17:13.296Z,3.00
2023-02-25T11:22:24.077Z,3.50
2023-02-25T11:27:39.305Z,2.80
2023-02-25T11:32:54.969Z,3.50
2023-02-25T11:37:58.739Z,3.30
2023-02-25T11:43:17.160Z,3.30
2023-02-25T11:48:23.949Z,2.80
2023-02-25T11:53:47.662Z,0.80
2023-02-25T11:59:07.006Z,1.60
2023-02-25T12:04:59.429Z,2.10
2023-02-25T12:10:17.063Z,2.10
2023-02-25T12:15:50.237Z,2.90
2023-02-25T12:21:33.510Z,2.40
2023-02-25T12:26:54.026Z,3.10
2023-02-25T12:32:21.384Z,3.40
2023-02-25T12:37:29.664Z,4.00
2023-02-25T12:42:31.392Z,2.60
2023-02-25T12:47:39.036Z,6.10
2023-02-25T12:52:54.142Z,2.00
2023-02-25T12:58:20.020Z,4.10
2023-02-25T13:03:29.820Z,4.40
2023-02-25T13:08:46.872Z,3.70
2023-02-25T13:19:36.015Z,2.70
2023-02-25T13:24:56.674Z,3.70
2023-02-25T13:30:15.283Z,3.10
2023-02-25T13:35:42.914Z,2.50
2023-02-25T13:40:48.317Z,4.60
2023-02-25T13:46:06.124Z,3.60
2023-02-25T13:51:13.557Z,4.20
2023-02-25T13:56:30.433Z,4.50
2023-02-25T14:01:57.691Z,3.10
2023-02-25T14:07:42.391Z,1.70
2023-02-25T14:12:49.845Z,1.90
2023-02-25T14:18:29.684Z,3.10
2023-02-25T14:23:50.362Z,5.50
2023-02-25T14:29:12.027Z,3.70
2023-02-25T14:34:28.945Z,2.70
2023-02-25T14:39:51.881Z,4.80
2023-02-25T14:45:14.522Z,3.00
2023-02-25T14:50:24.121Z,3.40
2023-02-25T14:55:41.583Z,2.90
2023-02-25T15:00:52.833Z,3.00
2023-02-25T15:06:03.408Z,3.50
2023-02-25T15:11:14.063Z,2.70
2023-02-25T15:21:39.424Z,5.20
2023-02-25T15:26:51.733Z,4.10
2023-02-25T15:32:21.594Z,3.70
2023-02-25T15:37:37.198Z,3.70
2023-02-25T15:42:47.516Z,4.90
2023-02-25T15:47:49.615Z,3.90
2023-02-25T15:52:56.730Z,4.20
2023-02-25T15:58:23.607Z,4.20
2023-02-25T16:03:31.394Z,4.10
2023-02-25T16:08:44.290Z,2.70
2023-02-25T16:13:46.292Z,3.50
2023-02-25T16:18:50.631Z,5.00
2023-02-25T16:23:54.538Z,5.90
2023-02-25T16:29:14.958Z,3.50
2023-02-25T16:34:22.853Z,3.50
2023-02-25T16:39:27.798Z,3.50
2023-02-25T16:44:36.492Z,4.40
2023-02-25T16:49:46.159Z,3.40
2023-02-25T16:54:56.631Z,3.30
2023-02-25T17:00:14.757Z,4.90
2023-02-25T17:05:26.646Z,3.50
2023-02-25T17:10:46.866Z,4.00
2023-02-25T17:15:48.595Z,5.00
2023-02-25T17:20:52.682Z,5.10
2023-02-25T17:25:55.178Z,2.80
2023-02-25T17:31:27.889Z,3.10
2023-02-25T17:36:33.384Z,4.80
2023-02-25T17:41:36.367Z,8.60
2023-02-25T17:46:43.953Z,7.50
2023-02-25T17:51:46.419Z,9.20
2023-02-25T17:56:59.885Z,8.00
2023-02-25T18:02:03.061Z,11.30
2023-02-25T18:07:35.383Z,6.00
2023-02-25T18:12:39.353Z,6.00
2023-02-25T18:17:47.302Z,10.20
2023-02-25T18:22:49.462Z,5.20
2023-02-25T18:27:53.775Z,7.60
2023-02-25T18:32:57.351Z,3.00
2023-02-25T18:38:00.409Z,5.50
2023-02-25T18:43:03.807Z,6.20
2023-02-25T18:48:07.009Z,8.90
2023-02-25T18:53:21.115Z,7.20
2023-02-25T18:58:24.379Z,4.30
2023-02-25T19:03:33.832Z,3.70
2023-02-25T19:08:35.849Z,6.30
2023-02-25T19:13:41.399Z,7.90
2023-02-25T19:18:43.469Z,4.60
2023-02-25T19:23:46.149Z,7.00
2023-02-25T19:28:47.968Z,8.60
2023-02-25T19:33:49.632Z,6.80
2023-02-25T19:38:51.302Z,7.00
2023-02-25T19:43:54.219Z,7.80
2023-02-25T19:48:57.113Z,8.80
2023-02-25T19:54:00.298Z,6.70
2023-02-25T19:59:02.406Z,5.00
2023-02-25T20:04:04.980Z,5.90
2023-02-25T20:09:09.227Z,10.70
2023-02-25T20:14:12.459Z,7.80
2023-02-25T20:19:14.203Z,8.90
2023-02-25T20:24:15.970Z,11.60
2023-02-25T20:29:18.319Z,14.60
2023-02-25T20:34:21.762Z,8.50
2023-02-25T20:39:26.610Z,14.90
2023-02-25T20:49:30.140Z,18.80
2023-02-25T20:54:31.852Z,17.30
2023-02-25T20:59:35.042Z,17.80
2023-02-25T21:04:37.357Z,19.80
2023-02-25T21:09:39.559Z,20.40
2023-02-25T21:14:41.623Z,20.10
2023-02-25T21:19:43.740Z,15.40
2023-02-25T21:24:45.559Z,15.70
2023-02-25T21:29:49.981Z,22.90
2023-02-25T21:34:51.688Z,13.90
2023-02-25T21:39:53.959Z,9.30
2023-02-25T21:44:55.847Z,10.30
2023-02-25T21:49:57.548Z,11.50
2023-02-25T21:54:59.262Z,10.70
2023-02-25T22:00:01.935Z,9.40
2023-02-25T22:05:13.946Z,12.50
2023-02-25T22:10:15.891Z,14.90
2023-02-25T22:15:22.990Z,8.70
2023-02-25T22:20:24.719Z,10.40
2023-02-25T22:25:26.375Z,12.50
2023-02-25T22:30:28.164Z,9.40
2023-02-25T22:35:29.927Z,11.50
2023-02-25T22:40:31.626Z,6.40
2023-02-25T22:45:33.720Z,9.10
2023-02-25T22:50:49.336Z,9.00
2023-02-25T22:55:51.335Z,11.80
2023-02-25T23:00:54.402Z,8.20
2023-02-25T23:05:56.138Z,6.30
2023-02-25T23:11:19.183Z,8.40
2023-02-25T23:16:24.521Z,14.20
2023-02-25T23:21:27.800Z,15.20
2023-02-25T23:26:34.058Z,19.60
2023-02-25T23:31:38.351Z,13.90
2023-02-25T23:36:42.250Z,5.20
2023-02-25T23:41:44.200Z,12.80
2023-02-25T23:46:46.001Z,8.00
2023-02-25T23:51:48.409Z,6.50
2023-02-25T23:56:50.880Z,11.50
